sensor_id;sensor_type;location;lat;lon;timestamp;temperature;humidity
81140;SHT31;70624;51.978;5.656;2024-01-25T00:02:28;10.3;66.0
81140;SHT31;70624;51.978;5.656;2024-01-25T00:04:56;10.3;66.1
81140;SHT31;70624;51.978;5.656;2024-01-25T00:07:25;10.3;66.1
81140;SHT31;70624;51.978;5.656;2024-01-25T00:09:53;10.2;66.2
81140;SHT31;70624;51.978;5.656;2024-01-25T00:12:22;10.2;66.2
81140;SHT31;70624;51.978;5.656;2024-01-25T00:14:50;10.1;66.2
81140;SHT31;70624;51.978;5.656;2024-01-25T00:17:19;10.1;66.4
81140;SHT31;70624;51.978;5.656;2024-01-25T00:19:48;10.0;66.4
81140;SHT31;70624;51.978;5.656;2024-01-25T00:22:16;10.0;66.5
81140;SHT31;70624;51.978;5.656;2024-01-25T00:24:45;10.0;66.5
81140;SHT31;70624;51.978;5.656;2024-01-25T00:27:13;9.9;66.5
81140;SHT31;70624;51.978;5.656;2024-01-25T00:29:42;9.9;66.9
81140;SHT31;70624;51.978;5.656;2024-01-25T00:32:10;9.9;66.9
81140;SHT31;70624;51.978;5.656;2024-01-25T00:34:39;9.8;66.9
81140;SHT31;70624;51.978;5.656;2024-01-25T00:37:08;9.8;66.9
81140;SHT31;70624;51.978;5.656;2024-01-25T00:39:37;9.8;66.9
81140;SHT31;70624;51.978;5.656;2024-01-25T00:42:06;9.7;66.8
81140;SHT31;70624;51.978;5.656;2024-01-25T00:44:38;9.7;66.9
81140;SHT31;70624;51.978;5.656;2024-01-25T00:47:08;9.7;67.0
81140;SHT31;70624;51.978;5.656;2024-01-25T00:49:37;9.6;67.1
81140;SHT31;70624;51.978;5.656;2024-01-25T00:52:07;9.6;67.1
81140;SHT31;70624;51.978;5.656;2024-01-25T00:54:36;9.6;67.1
81140;SHT31;70624;51.978;5.656;2024-01-25T00:57:05;9.5;67.2
81140;SHT31;70624;51.978;5.656;2024-01-25T00:59:35;9.5;67.2
81140;SHT31;70624;51.978;5.656;2024-01-25T01:02:04;9.5;67.2
81140;SHT31;70624;51.978;5.656;2024-01-25T01:04:34;9.5;67.4
81140;SHT31;70624;51.978;5.656;2024-01-25T01:07:04;9.5;67.3
81140;SHT31;70624;51.978;5.656;2024-01-25T01:09:32;9.4;67.2
81140;SHT31;70624;51.978;5.656;2024-01-25T01:12:01;9.4;66.9
81140;SHT31;70624;51.978;5.656;2024-01-25T01:14:29;9.4;66.8
81140;SHT31;70624;51.978;5.656;2024-01-25T01:16:58;9.4;66.9
81140;SHT31;70624;51.978;5.656;2024-01-25T01:19:26;9.3;67.0
81140;SHT31;70624;51.978;5.656;2024-01-25T01:21:54;9.3;67.2
81140;SHT31;70624;51.978;5.656;2024-01-25T01:24:23;9.2;67.3
81140;SHT31;70624;51.978;5.656;2024-01-25T01:26:51;9.2;67.6
81140;SHT31;70624;51.978;5.656;2024-01-25T01:29:20;9.2;67.4
81140;SHT31;70624;51.978;5.656;2024-01-25T01:31:48;9.1;67.3
81140;SHT31;70624;51.978;5.656;2024-01-25T01:34:19;9.1;67.3
81140;SHT31;70624;51.978;5.656;2024-01-25T01:36:47;9.1;67.3
81140;SHT31;70624;51.978;5.656;2024-01-25T01:39:16;9.0;67.3
81140;SHT31;70624;51.978;5.656;2024-01-25T01:41:48;9.0;67.3
81140;SHT31;70624;51.978;5.656;2024-01-25T01:44:16;8.9;67.6
81140;SHT31;70624;51.978;5.656;2024-01-25T01:46:45;8.9;67.8
81140;SHT31;70624;51.978;5.656;2024-01-25T01:49:14;8.8;68.1
81140;SHT31;70624;51.978;5.656;2024-01-25T01:51:43;8.8;68.4
81140;SHT31;70624;51.978;5.656;2024-01-25T01:54:13;8.7;68.5
81140;SHT31;70624;51.978;5.656;2024-01-25T01:56:41;8.7;68.6
81140;SHT31;70624;51.978;5.656;2024-01-25T01:59:11;8.7;68.8
81140;SHT31;70624;51.978;5.656;2024-01-25T02:01:40;8.6;69.0
81140;SHT31;70624;51.978;5.656;2024-01-25T02:04:08;8.6;69.2
81140;SHT31;70624;51.978;5.656;2024-01-25T02:06:39;8.6;69.3
81140;SHT31;70624;51.978;5.656;2024-01-25T02:09:09;8.5;69.5
81140;SHT31;70624;51.978;5.656;2024-01-25T02:11:38;8.5;69.4
81140;SHT31;70624;51.978;5.656;2024-01-25T02:14:06;8.5;69.4
81140;SHT31;70624;51.978;5.656;2024-01-25T02:16:37;8.5;69.2
81140;SHT31;70624;51.978;5.656;2024-01-25T02:19:06;8.5;69.2
81140;SHT31;70624;51.978;5.656;2024-01-25T02:21:34;8.5;69.1
81140;SHT31;70624;51.978;5.656;2024-01-25T02:24:03;8.4;69.0
81140;SHT31;70624;51.978;5.656;2024-01-25T02:26:31;8.4;69.0
81140;SHT31;70624;51.978;5.656;2024-01-25T02:29:00;8.4;68.9
81140;SHT31;70624;51.978;5.656;2024-01-25T02:31:31;8.4;68.7
81140;SHT31;70624;51.978;5.656;2024-01-25T02:33:59;8.3;68.8
81140;SHT31;70624;51.978;5.656;2024-01-25T02:36:28;8.3;68.6
81140;SHT31;70624;51.978;5.656;2024-01-25T02:38:56;8.3;68.6
81140;SHT31;70624;51.978;5.656;2024-01-25T02:41:24;8.3;68.6
81140;SHT31;70624;51.978;5.656;2024-01-25T02:43:53;8.2;68.6
81140;SHT31;70624;51.978;5.656;2024-01-25T02:46:21;8.2;68.3
81140;SHT31;70624;51.978;5.656;2024-01-25T02:48:50;8.2;68.5
81140;SHT31;70624;51.978;5.656;2024-01-25T02:51:18;8.2;68.5
81140;SHT31;70624;51.978;5.656;2024-01-25T02:53:46;8.1;68.5
81140;SHT31;70624;51.978;5.656;2024-01-25T02:56:15;8.1;68.7
81140;SHT31;70624;51.978;5.656;2024-01-25T02:58:43;8.1;68.7
81140;SHT31;70624;51.978;5.656;2024-01-25T03:01:12;8.1;68.8
81140;SHT31;70624;51.978;5.656;2024-01-25T03:03:40;8.0;68.7
81140;SHT31;70624;51.978;5.656;2024-01-25T03:06:09;8.0;69.2
81140;SHT31;70624;51.978;5.656;2024-01-25T03:08:37;8.0;69.6
81140;SHT31;70624;51.978;5.656;2024-01-25T03:11:06;7.9;69.9
81140;SHT31;70624;51.978;5.656;2024-01-25T03:13:34;7.9;70.0
81140;SHT31;70624;51.978;5.656;2024-01-25T03:16:03;7.9;70.0
81140;SHT31;70624;51.978;5.656;2024-01-25T03:18:31;7.9;70.2
81140;SHT31;70624;51.978;5.656;2024-01-25T03:21:00;7.9;70.3
81140;SHT31;70624;51.978;5.656;2024-01-25T03:23:28;7.8;70.5
81140;SHT31;70624;51.978;5.656;2024-01-25T03:25:56;7.8;70.3
81140;SHT31;70624;51.978;5.656;2024-01-25T03:28:25;7.8;70.3
81140;SHT31;70624;51.978;5.656;2024-01-25T03:30:53;7.8;70.5
81140;SHT31;70624;51.978;5.656;2024-01-25T03:33:22;7.8;70.5
81140;SHT31;70624;51.978;5.656;2024-01-25T03:35:51;7.8;70.5
81140;SHT31;70624;51.978;5.656;2024-01-25T03:38:20;7.7;70.3
81140;SHT31;70624;51.978;5.656;2024-01-25T03:40:48;7.7;70.2
81140;SHT31;70624;51.978;5.656;2024-01-25T03:43:17;7.7;70.1
81140;SHT31;70624;51.978;5.656;2024-01-25T03:45:45;7.7;70.2
81140;SHT31;70624;51.978;5.656;2024-01-25T03:48:14;7.7;70.7
81140;SHT31;70624;51.978;5.656;2024-01-25T03:50:43;7.6;70.8
81140;SHT31;70624;51.978;5.656;2024-01-25T03:53:11;7.6;70.9
81140;SHT31;70624;51.978;5.656;2024-01-25T03:55:41;7.6;70.7
81140;SHT31;70624;51.978;5.656;2024-01-25T03:58:09;7.6;71.0
81140;SHT31;70624;51.978;5.656;2024-01-25T04:00:38;7.6;71.2
81140;SHT31;70624;51.978;5.656;2024-01-25T04:03:08;7.6;71.3
81140;SHT31;70624;51.978;5.656;2024-01-25T04:05:37;7.5;71.5
81140;SHT31;70624;51.978;5.656;2024-01-25T04:08:06;7.5;71.6
81140;SHT31;70624;51.978;5.656;2024-01-25T04:10:35;7.5;71.7
81140;SHT31;70624;51.978;5.656;2024-01-25T04:13:05;7.5;71.7
81140;SHT31;70624;51.978;5.656;2024-01-25T04:15:34;7.5;71.8
81140;SHT31;70624;51.978;5.656;2024-01-25T04:18:02;7.5;71.9
81140;SHT31;70624;51.978;5.656;2024-01-25T04:20:31;7.4;71.7
81140;SHT31;70624;51.978;5.656;2024-01-25T04:23:00;7.4;71.8
81140;SHT31;70624;51.978;5.656;2024-01-25T04:25:29;7.4;71.5
81140;SHT31;70624;51.978;5.656;2024-01-25T04:27:57;7.4;71.4
81140;SHT31;70624;51.978;5.656;2024-01-25T04:30:26;7.4;71.5
81140;SHT31;70624;51.978;5.656;2024-01-25T04:32:56;7.4;71.6
81140;SHT31;70624;51.978;5.656;2024-01-25T04:35:27;7.4;71.2
81140;SHT31;70624;51.978;5.656;2024-01-25T04:37:58;7.4;71.0
81140;SHT31;70624;51.978;5.656;2024-01-25T04:40:26;7.3;70.7
81140;SHT31;70624;51.978;5.656;2024-01-25T04:42:55;7.3;70.5
81140;SHT31;70624;51.978;5.656;2024-01-25T04:45:27;7.3;70.3
81140;SHT31;70624;51.978;5.656;2024-01-25T04:47:55;7.3;70.1
81140;SHT31;70624;51.978;5.656;2024-01-25T04:50:23;7.3;69.7
81140;SHT31;70624;51.978;5.656;2024-01-25T04:52:52;7.3;69.7
81140;SHT31;70624;51.978;5.656;2024-01-25T04:55:21;7.3;69.7
81140;SHT31;70624;51.978;5.656;2024-01-25T04:57:49;7.2;70.7
81140;SHT31;70624;51.978;5.656;2024-01-25T05:00:21;7.2;70.8
81140;SHT31;70624;51.978;5.656;2024-01-25T05:02:50;7.2;71.0
81140;SHT31;70624;51.978;5.656;2024-01-25T05:05:19;7.2;71.2
81140;SHT31;70624;51.978;5.656;2024-01-25T05:07:47;7.2;70.9
81140;SHT31;70624;51.978;5.656;2024-01-25T05:10:15;7.2;70.8
81140;SHT31;70624;51.978;5.656;2024-01-25T05:12:44;7.2;70.6
81140;SHT31;70624;51.978;5.656;2024-01-25T05:15:12;7.1;70.6
81140;SHT31;70624;51.978;5.656;2024-01-25T05:17:41;7.1;70.8
81140;SHT31;70624;51.978;5.656;2024-01-25T05:20:10;7.1;71.2
81140;SHT31;70624;51.978;5.656;2024-01-25T05:22:39;7.1;71.1
81140;SHT31;70624;51.978;5.656;2024-01-25T05:25:08;7.1;71.5
81140;SHT31;70624;51.978;5.656;2024-01-25T05:27:37;7.0;71.7
81140;SHT31;70624;51.978;5.656;2024-01-25T05:30:06;7.0;72.2
81140;SHT31;70624;51.978;5.656;2024-01-25T05:32:36;7.0;72.6
81140;SHT31;70624;51.978;5.656;2024-01-25T05:35:07;6.9;72.4
81140;SHT31;70624;51.978;5.656;2024-01-25T05:37:35;6.9;72.7
81140;SHT31;70624;51.978;5.656;2024-01-25T05:40:05;6.9;73.5
81140;SHT31;70624;51.978;5.656;2024-01-25T05:42:33;6.9;73.6
81140;SHT31;70624;51.978;5.656;2024-01-25T05:45:02;6.9;73.5
81140;SHT31;70624;51.978;5.656;2024-01-25T05:47:31;6.8;73.7
81140;SHT31;70624;51.978;5.656;2024-01-25T05:50:01;6.8;73.7
81140;SHT31;70624;51.978;5.656;2024-01-25T05:52:29;6.8;73.6
81140;SHT31;70624;51.978;5.656;2024-01-25T05:54:58;6.8;73.7
81140;SHT31;70624;51.978;5.656;2024-01-25T05:57:26;6.8;73.8
81140;SHT31;70624;51.978;5.656;2024-01-25T05:59:55;6.8;73.6
81140;SHT31;70624;51.978;5.656;2024-01-25T06:02:24;6.8;73.6
81140;SHT31;70624;51.978;5.656;2024-01-25T06:04:52;6.8;73.9
81140;SHT31;70624;51.978;5.656;2024-01-25T06:07:23;6.8;73.7
81140;SHT31;70624;51.978;5.656;2024-01-25T06:09:51;6.8;73.4
81140;SHT31;70624;51.978;5.656;2024-01-25T06:12:20;6.8;73.2
81140;SHT31;70624;51.978;5.656;2024-01-25T06:14:48;6.8;72.8
81140;SHT31;70624;51.978;5.656;2024-01-25T06:17:20;6.8;72.6
81140;SHT31;70624;51.978;5.656;2024-01-25T06:19:48;6.9;72.2
81140;SHT31;70624;51.978;5.656;2024-01-25T06:22:17;6.9;72.0
81140;SHT31;70624;51.978;5.656;2024-01-25T06:24:45;6.9;71.7
81140;SHT31;70624;51.978;5.656;2024-01-25T06:27:14;6.9;71.6
81140;SHT31;70624;51.978;5.656;2024-01-25T06:29:42;6.9;71.4
81140;SHT31;70624;51.978;5.656;2024-01-25T06:32:11;6.9;71.1
81140;SHT31;70624;51.978;5.656;2024-01-25T06:34:40;6.9;70.9
81140;SHT31;70624;51.978;5.656;2024-01-25T06:37:08;6.8;70.7
81140;SHT31;70624;51.978;5.656;2024-01-25T06:39:38;6.8;70.6
81140;SHT31;70624;51.978;5.656;2024-01-25T06:42:06;6.8;70.4
81140;SHT31;70624;51.978;5.656;2024-01-25T06:44:35;6.8;70.2
81140;SHT31;70624;51.978;5.656;2024-01-25T06:47:04;6.8;70.3
81140;SHT31;70624;51.978;5.656;2024-01-25T06:49:32;6.8;70.3
81140;SHT31;70624;51.978;5.656;2024-01-25T06:52:01;6.8;70.0
81140;SHT31;70624;51.978;5.656;2024-01-25T06:54:29;6.8;70.1
81140;SHT31;70624;51.978;5.656;2024-01-25T06:56:58;6.7;70.2
81140;SHT31;70624;51.978;5.656;2024-01-25T06:59:28;6.7;70.1
81140;SHT31;70624;51.978;5.656;2024-01-25T07:01:57;6.7;70.1
81140;SHT31;70624;51.978;5.656;2024-01-25T07:04:25;6.7;70.2
81140;SHT31;70624;51.978;5.656;2024-01-25T07:06:54;6.7;70.1
81140;SHT31;70624;51.978;5.656;2024-01-25T07:09:23;6.7;70.2
81140;SHT31;70624;51.978;5.656;2024-01-25T07:11:51;6.7;70.2
81140;SHT31;70624;51.978;5.656;2024-01-25T07:14:20;6.7;70.4
81140;SHT31;70624;51.978;5.656;2024-01-25T07:16:48;6.7;70.4
81140;SHT31;70624;51.978;5.656;2024-01-25T17:52:32;11.7;72.9
81140;SHT31;70624;51.978;5.656;2024-01-25T17:55:00;11.5;73.8
81140;SHT31;70624;51.978;5.656;2024-01-25T17:57:29;11.5;73.9
81140;SHT31;70624;51.978;5.656;2024-01-25T17:59:57;11.5;74.0
81140;SHT31;70624;51.978;5.656;2024-01-25T18:02:26;11.5;74.2
81140;SHT31;70624;51.978;5.656;2024-01-25T18:04:54;11.5;74.6
81140;SHT31;70624;51.978;5.656;2024-01-25T18:07:23;11.4;74.8
81140;SHT31;70624;51.978;5.656;2024-01-25T18:09:51;11.4;75.1
81140;SHT31;70624;51.978;5.656;2024-01-25T18:12:20;11.4;75.2
81140;SHT31;70624;51.978;5.656;2024-01-25T18:14:48;11.4;75.5
81140;SHT31;70624;51.978;5.656;2024-01-25T18:17:16;11.4;75.6
81140;SHT31;70624;51.978;5.656;2024-01-25T18:19:45;11.4;75.7
81140;SHT31;70624;51.978;5.656;2024-01-25T18:22:14;11.4;76.0
81140;SHT31;70624;51.978;5.656;2024-01-25T18:24:42;11.3;76.2
81140;SHT31;70624;51.978;5.656;2024-01-25T18:27:11;11.3;76.4
81140;SHT31;70624;51.978;5.656;2024-01-25T18:29:39;11.3;76.5
81140;SHT31;70624;51.978;5.656;2024-01-25T18:32:08;11.3;76.6
81140;SHT31;70624;51.978;5.656;2024-01-25T18:34:37;11.3;76.7
81140;SHT31;70624;51.978;5.656;2024-01-25T18:37:05;11.3;77.0
81140;SHT31;70624;51.978;5.656;2024-01-25T18:39:36;11.3;77.0
81140;SHT31;70624;51.978;5.656;2024-01-25T18:42:05;11.3;77.1
81140;SHT31;70624;51.978;5.656;2024-01-25T18:44:33;11.3;77.2
81140;SHT31;70624;51.978;5.656;2024-01-25T18:47:04;11.3;77.3
81140;SHT31;70624;51.978;5.656;2024-01-25T18:49:33;11.3;77.4
81140;SHT31;70624;51.978;5.656;2024-01-25T18:52:03;11.3;77.6
81140;SHT31;70624;51.978;5.656;2024-01-25T18:54:34;11.3;77.7
81140;SHT31;70624;51.978;5.656;2024-01-25T18:57:04;11.3;77.9
81140;SHT31;70624;51.978;5.656;2024-01-25T18:59:33;11.3;78.2
81140;SHT31;70624;51.978;5.656;2024-01-25T19:02:04;11.3;78.3
81140;SHT31;70624;51.978;5.656;2024-01-25T19:04:33;11.3;78.5
81140;SHT31;70624;51.978;5.656;2024-01-25T19:07:04;11.3;78.5
81140;SHT31;70624;51.978;5.656;2024-01-25T19:09:33;11.3;78.5
81140;SHT31;70624;51.978;5.656;2024-01-25T19:12:04;11.3;78.6
81140;SHT31;70624;51.978;5.656;2024-01-25T19:14:35;11.4;78.6
81140;SHT31;70624;51.978;5.656;2024-01-25T19:17:03;11.4;78.7
81140;SHT31;70624;51.978;5.656;2024-01-25T19:19:33;11.4;78.7
81140;SHT31;70624;51.978;5.656;2024-01-25T19:22:01;11.4;78.6
81140;SHT31;70624;51.978;5.656;2024-01-25T19:24:30;11.4;78.7
81140;SHT31;70624;51.978;5.656;2024-01-25T19:26:58;11.4;78.8
81140;SHT31;70624;51.978;5.656;2024-01-25T19:29:27;11.4;78.8
81140;SHT31;70624;51.978;5.656;2024-01-25T19:31:55;11.4;78.9
81140;SHT31;70624;51.978;5.656;2024-01-25T19:34:24;11.4;78.9
81140;SHT31;70624;51.978;5.656;2024-01-25T19:36:52;11.4;78.9
81140;SHT31;70624;51.978;5.656;2024-01-25T19:39:21;11.4;78.9
81140;SHT31;70624;51.978;5.656;2024-01-25T19:41:49;11.4;78.9
81140;SHT31;70624;51.978;5.656;2024-01-25T19:44:18;11.4;79.1
81140;SHT31;70624;51.978;5.656;2024-01-25T19:46:46;11.4;79.3
81140;SHT31;70624;51.978;5.656;2024-01-25T19:49:15;11.4;79.3
81140;SHT31;70624;51.978;5.656;2024-01-25T19:51:43;11.5;79.3
81140;SHT31;70624;51.978;5.656;2024-01-25T19:54:12;11.5;79.5
81140;SHT31;70624;51.978;5.656;2024-01-25T19:56:40;11.5;79.5
81140;SHT31;70624;51.978;5.656;2024-01-25T19:59:09;11.5;79.4
81140;SHT31;70624;51.978;5.656;2024-01-25T20:01:38;11.5;79.4
81140;SHT31;70624;51.978;5.656;2024-01-25T20:04:10;11.5;79.5
81140;SHT31;70624;51.978;5.656;2024-01-25T20:06:39;11.5;79.5
81140;SHT31;70624;51.978;5.656;2024-01-25T20:09:07;11.6;79.4
81140;SHT31;70624;51.978;5.656;2024-01-25T20:11:36;11.6;79.5
81140;SHT31;70624;51.978;5.656;2024-01-25T20:14:05;11.6;79.4
81140;SHT31;70624;51.978;5.656;2024-01-25T20:16:33;11.6;79.4
81140;SHT31;70624;51.978;5.656;2024-01-25T20:19:02;11.6;79.5
81140;SHT31;70624;51.978;5.656;2024-01-25T20:21:32;11.6;79.5
81140;SHT31;70624;51.978;5.656;2024-01-25T20:24:01;11.6;79.6
81140;SHT31;70624;51.978;5.656;2024-01-25T20:26:29;11.6;79.6
81140;SHT31;70624;51.978;5.656;2024-01-25T20:28:58;11.6;79.7
81140;SHT31;70624;51.978;5.656;2024-01-25T20:31:26;11.6;79.8
81140;SHT31;70624;51.978;5.656;2024-01-25T20:33:55;11.6;80.0
81140;SHT31;70624;51.978;5.656;2024-01-25T20:36:23;11.7;80.3
81140;SHT31;70624;51.978;5.656;2024-01-25T20:38:51;11.7;80.4
81140;SHT31;70624;51.978;5.656;2024-01-25T20:41:20;11.7;80.4
81140;SHT31;70624;51.978;5.656;2024-01-25T20:43:50;11.8;80.1
81140;SHT31;70624;51.978;5.656;2024-01-25T20:46:19;11.8;79.9
81140;SHT31;70624;51.978;5.656;2024-01-25T20:48:47;11.8;79.7
81140;SHT31;70624;51.978;5.656;2024-01-25T20:51:18;11.8;79.6
81140;SHT31;70624;51.978;5.656;2024-01-25T20:53:46;11.9;79.5
81140;SHT31;70624;51.978;5.656;2024-01-25T20:56:15;11.9;79.5
81140;SHT31;70624;51.978;5.656;2024-01-25T20:58:43;11.9;79.6
81140;SHT31;70624;51.978;5.656;2024-01-25T21:01:13;11.9;79.6
81140;SHT31;70624;51.978;5.656;2024-01-25T21:03:42;11.9;79.5
81140;SHT31;70624;51.978;5.656;2024-01-25T21:06:12;11.9;79.6
81140;SHT31;70624;51.978;5.656;2024-01-25T21:08:43;11.9;79.7
81140;SHT31;70624;51.978;5.656;2024-01-25T21:11:12;11.9;79.9
81140;SHT31;70624;51.978;5.656;2024-01-25T21:13:42;11.9;80.0
81140;SHT31;70624;51.978;5.656;2024-01-25T21:16:13;11.9;80.0
81140;SHT31;70624;51.978;5.656;2024-01-25T21:18:42;11.9;80.0
81140;SHT31;70624;51.978;5.656;2024-01-25T21:21:10;11.9;80.1
81140;SHT31;70624;51.978;5.656;2024-01-25T21:23:40;11.9;80.2
81140;SHT31;70624;51.978;5.656;2024-01-25T21:26:09;11.9;80.2
81140;SHT31;70624;51.978;5.656;2024-01-25T21:28:37;11.9;80.2
81140;SHT31;70624;51.978;5.656;2024-01-25T21:31:07;11.9;80.1
81140;SHT31;70624;51.978;5.656;2024-01-25T21:33:36;12.0;80.0
81140;SHT31;70624;51.978;5.656;2024-01-25T21:36:07;12.0;80.0
81140;SHT31;70624;51.978;5.656;2024-01-25T21:38:36;12.0;79.9
81140;SHT31;70624;51.978;5.656;2024-01-25T21:41:06;12.0;79.9
81140;SHT31;70624;51.978;5.656;2024-01-25T21:43:35;12.0;79.7
81140;SHT31;70624;51.978;5.656;2024-01-25T21:46:03;12.0;79.7
81140;SHT31;70624;51.978;5.656;2024-01-25T21:48:32;12.0;79.8
81140;SHT31;70624;51.978;5.656;2024-01-25T21:51:00;12.1;79.7
81140;SHT31;70624;51.978;5.656;2024-01-25T21:53:29;12.1;79.7
81140;SHT31;70624;51.978;5.656;2024-01-25T21:55:57;12.1;79.5
81140;SHT31;70624;51.978;5.656;2024-01-25T21:58:27;12.1;79.4
81140;SHT31;70624;51.978;5.656;2024-01-25T22:00:56;12.1;79.5
81140;SHT31;70624;51.978;5.656;2024-01-25T22:03:24;12.1;79.4
81140;SHT31;70624;51.978;5.656;2024-01-25T22:05:52;12.1;79.6
81140;SHT31;70624;51.978;5.656;2024-01-25T22:08:21;12.1;79.6
81140;SHT31;70624;51.978;5.656;2024-01-25T22:10:51;12.1;79.7
81140;SHT31;70624;51.978;5.656;2024-01-25T22:13:20;12.1;79.6
81140;SHT31;70624;51.978;5.656;2024-01-25T22:15:48;12.1;79.7
81140;SHT31;70624;51.978;5.656;2024-01-25T22:18:19;12.1;79.7
81140;SHT31;70624;51.978;5.656;2024-01-25T22:20:48;12.1;79.5
81140;SHT31;70624;51.978;5.656;2024-01-25T22:23:16;12.1;79.6
81140;SHT31;70624;51.978;5.656;2024-01-25T22:25:45;12.1;79.7
81140;SHT31;70624;51.978;5.656;2024-01-25T22:28:13;12.2;79.5
81140;SHT31;70624;51.978;5.656;2024-01-25T22:30:42;12.2;79.4
81140;SHT31;70624;51.978;5.656;2024-01-25T22:33:11;12.2;79.5
81140;SHT31;70624;51.978;5.656;2024-01-25T22:35:42;12.2;79.4
81140;SHT31;70624;51.978;5.656;2024-01-25T22:38:11;12.2;79.4
81140;SHT31;70624;51.978;5.656;2024-01-25T22:40:39;12.2;79.4
81140;SHT31;70624;51.978;5.656;2024-01-25T22:43:09;12.2;79.4
81140;SHT31;70624;51.978;5.656;2024-01-25T22:45:38;12.2;79.2
81140;SHT31;70624;51.978;5.656;2024-01-25T22:48:07;12.3;79.2
81140;SHT31;70624;51.978;5.656;2024-01-25T22:50:35;12.3;79.2
81140;SHT31;70624;51.978;5.656;2024-01-25T22:53:06;12.3;79.0
81140;SHT31;70624;51.978;5.656;2024-01-25T22:55:34;12.3;79.0
81140;SHT31;70624;51.978;5.656;2024-01-25T22:58:03;12.3;79.0
81140;SHT31;70624;51.978;5.656;2024-01-25T23:00:32;12.3;78.9
81140;SHT31;70624;51.978;5.656;2024-01-25T23:03:01;12.3;78.8
81140;SHT31;70624;51.978;5.656;2024-01-25T23:05:29;12.3;78.9
81140;SHT31;70624;51.978;5.656;2024-01-25T23:07:57;12.3;78.9
81140;SHT31;70624;51.978;5.656;2024-01-25T23:10:26;12.3;78.9
81140;SHT31;70624;51.978;5.656;2024-01-25T23:12:56;12.3;78.7
81140;SHT31;70624;51.978;5.656;2024-01-25T23:15:25;12.4;78.7
81140;SHT31;70624;51.978;5.656;2024-01-25T23:17:54;12.4;78.6
81140;SHT31;70624;51.978;5.656;2024-01-25T23:20:22;12.4;78.7
81140;SHT31;70624;51.978;5.656;2024-01-25T23:22:51;12.4;78.7
81140;SHT31;70624;51.978;5.656;2024-01-25T23:25:20;12.4;78.8
81140;SHT31;70624;51.978;5.656;2024-01-25T23:27:49;12.4;78.8
81140;SHT31;70624;51.978;5.656;2024-01-25T23:30:18;12.4;78.8
81140;SHT31;70624;51.978;5.656;2024-01-25T23:32:46;12.4;78.7
81140;SHT31;70624;51.978;5.656;2024-01-25T23:35:14;12.4;78.7
81140;SHT31;70624;51.978;5.656;2024-01-25T23:37:43;12.4;78.6
81140;SHT31;70624;51.978;5.656;2024-01-25T23:40:12;12.4;78.6
81140;SHT31;70624;51.978;5.656;2024-01-25T23:42:42;12.4;78.6
81140;SHT31;70624;51.978;5.656;2024-01-25T23:45:13;12.4;78.5
81140;SHT31;70624;51.978;5.656;2024-01-25T23:47:43;12.4;78.7
81140;SHT31;70624;51.978;5.656;2024-01-25T23:50:11;12.4;78.6
81140;SHT31;70624;51.978;5.656;2024-01-25T23:52:40;12.4;78.6
81140;SHT31;70624;51.978;5.656;2024-01-25T23:55:09;12.4;78.4
81140;SHT31;70624;51.978;5.656;2024-01-25T23:57:38;12.4;78.5
